Tiempo atmosférico en la estación meteorológica de Hermigua, Santa Cruz de Tenerife (252 m.)



Fecha
DESCASC
Temp. máxima en grados centígrados (hora)
DESCASC
Temp. mínima en grados centígrados (hora)
DESCASC
Temp. media en grados centígrados
DESCASC
Racha de viento máxima en m/sg (hora)
DESCASC
Velocidad máxima media en intervalos de 10 minutos(hora)
DESCASC
Precipitaciones diarias en mm
DESCASC
Precipitaciones de 00:00 a 06:00 en mm
DESCASC
Precipitaciones de 06:00 a 12:00 en mm
DESCASC
Precipitaciones de 12:00 a 18:00 en mm
DESCASC
Precipitaciones de 18:00 a 24:00 en mm
DESCASC
10-11-2019 21.4 (14:30) 17.8 (00:00) 19.6 13.33 (04:10) 6.11 (04:20) 0 0 0 0 0
09-11-2019 21 (14:10) 17.9 (00:00) 19.4 13.33 (16:20) 6.11 (16:20) 0 0 0 0 0
08-11-2019 21.5 (11:50) 18.1 (00:10) 19.8 11.94 (13:50) 5.56 (14:00) 0 0 0 0 0
07-11-2019 20.5 (14:00) 16.6 (00:00) 18.6 10.83 (19:10) 4.44 (23:59) 0 0 0 0 0
06-11-2019 20.1 (12:40) 16.7 (00:00) 18.4 10.28 (13:50) 5 (09:00) 1 0 0 0 1
05-11-2019 21.7 (12:00) 17.3 (00:00) 19.5 10.28 (23:59) 5.28 (22:00) 1 0 0 0 1
04-11-2019 22.6 (14:20) 17.4 (00:00) 20 9.44 (22:20) 4.17 (21:10) 0 0 0 0 0
03-11-2019 24.1 (13:30) 16.9 (00:00) 20.5 5.83 (14:40) 3.61 (14:50) 0 0 0 0 0
02-11-2019 23.7 (13:10) 18.9 (00:00) 21.3 6.11 (00:10) 3.33 (12:00) 0 0 0 0 0
01-11-2019 22.2 (14:40) 20.3 (00:00) 21.3 10.83 (01:40) 3.89 (01:40) 0 0 0 0 0
31-10-2019 23.9 (12:00) 18.5 (05:30) 21.2 10 (22:50) 4.44 (23:10) 0 0 0 0 0
30-10-2019 25.5 (10:50) 18.5 (00:00) 22 4.17 (11:20) 2.22 (11:20) -- -- -- -- 0
29-10-2019 27.7 (15:30) 18.1 (00:00) 22.9 3.33 (13:00) 2.22 (13:00) -- -- -- -- --
28-10-2019 26.7 (15:00) 18.6 (00:00) 22.7 3.89 (02:40) 2.22 (01:00) -- -- -- -- --
27-10-2019 26.8 (16:40) 20.2 (00:00) 23.5 7.5 (07:10) 3.61 (07:40) -- -- -- -- --
26-10-2019 25.1 (18:40) 17.1 (00:00) 21.1 11.94 (14:40) 5.56 (12:40) -- -- -- -- --
25-10-2019 22.3 (16:00) 13.4 (00:00) 17.8 3.61 (01:30) 2.22 (00:30) -- -- -- -- --
24-10-2019 22.4 (16:20) 15.1 (00:00) 18.8 5.83 (12:20) 2.78 (12:10) -- -- -- -- --
23-10-2019 20.9 (12:50) 17.4 (00:00) 19.1 8.33 (01:10) 3.61 (00:40) -- -- -- -- --
22-10-2019 21.3 (16:20) 17.8 (02:20) 19.5 9.72 (06:00) 3.89 (07:10) -- -- -- -- --
21-10-2019 20.9 (13:40) 17.5 (00:00) 19.2 9.17 (14:20) 4.44 (14:40) -- -- -- -- --
20-10-2019 22.3 (11:30) 17.4 (00:00) 19.8 9.17 (17:20) 4.17 (17:20) -- -- -- -- --
19-10-2019 23.8 (15:10) 18.3 (00:00) 21 5.83 (12:30) 3.06 (11:00) -- -- -- -- --
18-10-2019 22.9 (14:50) 16.5 (00:00) 19.7 6.67 (15:10) 3.06 (12:30) -- -- -- -- --
17-10-2019 23 (15:00) 18.8 (00:00) 20.9 6.67 (16:20) 2.78 (12:30) -- -- -- -- --
16-10-2019 21.3 (14:30) 18.1 (00:00) 19.7 5.56 (15:00) 2.22 (19:20) 0 0 0 0 0
15-10-2019 21.5 (13:40) 18.9 (00:00) 20.2 8.06 (00:20) 3.06 (00:20) 0 0 0 0 0

Gráficas

Temp. máximas Temp. mínimas Temp. medias Precipitaciones Rachas de viento máximas Velocidades máximas media en intervalos de 10 minutos

Datos horarios

Fecha y hora oficial Temperatura (ºC) Velocidad del viento (km/h) Dirección del viento Racha (km/h) Dirección de racha Precipitación (mm) Presión (hPa) Tendencia (hPa) Humedad (%)
2019-11-13 23:00:00 18.7 10 Nordeste 36 Norte 0 -- -- 73
2019-11-13 22:00:00 18.6 10 Norte 35 Nordeste 0 -- -- 79
2019-11-13 21:00:00 18.7 11 Nordeste 28 Nordeste 0 -- -- 78
2019-11-13 20:00:00 18.7 12 Nordeste 29 Nordeste 0 -- -- 79
2019-11-13 19:00:00 18.8 13 Nordeste 35 Norte 0 -- -- 75
2019-11-13 18:00:00 18.9 8 Nordeste 31 Norte 0 -- -- 79
2019-11-13 17:00:00 19.2 10 Nordeste 32 Nordeste 0 -- -- 78
2019-11-13 16:00:00 19.7 10 Nordeste 31 Norte 0 -- -- 74
2019-11-13 15:00:00 20.2 12 Nordeste 31 Norte 0 -- -- 72
2019-11-13 14:00:00 20.6 12 Norte 28 Nordeste 0 -- -- 71
2019-11-13 13:00:00 20.9 10 Norte 28 Noroeste 0 -- -- 70
2019-11-13 12:00:00 20.1 12 Norte 35 Nordeste 0 -- -- 74
2019-11-13 11:00:00 19.6 11 Norte 29 Norte 0 -- -- 76
2019-11-13 10:00:00 19.4 10 Norte 30 Noroeste 0 -- -- 76
2019-11-13 09:00:00 18.9 9 Norte 33 Nordeste 0 -- -- 79
2019-11-13 08:00:00 18.6 8 Norte 30 Norte 0 -- -- 82
2019-11-13 07:00:00 18.5 8 Norte 32 Norte 0 -- -- 83
2019-11-13 06:00:00 18.4 10 Norte 27 Nordeste 0 -- -- 81
2019-11-13 05:00:00 18.4 9 Nordeste 29 Nordeste 0 -- -- 78
2019-11-13 04:00:00 18.4 10 Nordeste 28 Nordeste 0 -- -- 79
2019-11-13 03:00:00 18.5 9 Nordeste 26 Nordeste 0 -- -- 80
2019-11-13 02:00:00 18.6 9 Norte 28 Nordeste 0 -- -- 80
2019-11-13 01:00:00 18.6 8 Nordeste 27 Nordeste 0 -- -- 79
2019-11-13 00:00:00 18.7 10 Norte 28 Nordeste 0 -- -- 80
2019-11-12 23:00:00 18.8 9 Nordeste 27 Norte 0 -- -- 80
2019-11-12 22:00:00 18.8 9 Nordeste 33 Este 0 -- -- 78
2019-11-12 21:00:00 19 17 Nordeste 34 Norte 0 -- -- 83
2019-11-12 20:00:00 19.1 11 Nordeste 30 Norte 0 -- -- 83
2019-11-12 19:00:00 18.9 10 Norte -- -- -- -- -- 93
2019-11-12 18:00:00 -- 10 Norte 30 Nordeste -- -- -- --
2019-11-12 17:00:00 19.4 11 Nordeste 31 Nordeste 0 -- -- 84
2019-11-12 16:00:00 19.6 9 Norte 29 Norte 0 -- -- 86
2019-11-12 15:00:00 20.1 13 Norte 32 Norte 0 -- -- 80
2019-11-12 14:00:00 19.7 15 Norte 36 Norte 0 -- -- 86
2019-11-12 13:00:00 18.9 6 Nordeste 26 Norte 0 -- -- 89
2019-11-12 12:00:00 19.1 9 Norte 32 Norte 0 -- -- 86
2019-11-12 11:00:00 18.9 21 Norte 45 Nordeste 0 -- -- 88
2019-11-12 10:00:00 19.2 7 Norte 32 Norte 0 -- -- 84
2019-11-12 09:00:00 19.1 11 Nordeste 27 Nordeste 0 -- -- 80
2019-11-12 08:00:00 18.6 10 Norte 34 Norte 0 -- -- 77
2019-11-12 07:00:00 18.8 9 Norte 27 Norte 0 -- -- 77
2019-11-12 06:00:00 18.8 9 Norte 30 Nordeste 0 -- -- 72
2019-11-12 05:00:00 18.6 9 Norte 31 Nordeste 0 -- -- 77
2019-11-12 04:00:00 18.7 10 Nordeste 29 Nordeste 0 -- -- 74
2019-11-12 03:00:00 18.5 10 Nordeste 28 Nordeste 0 -- -- 82
2019-11-12 02:00:00 18.8 14 Nordeste 36 Nordeste 0 -- -- 78
2019-11-12 01:00:00 18.7 11 Norte 30 Nordeste 0 -- -- 81
2019-11-12 00:00:00 18.6 15 Norte 33 Nordeste 0 -- -- 80
2019-11-11 23:00:00 18.5 8 Norte 27 Nordeste 0 -- -- 81
2019-11-11 22:00:00 18.6 13 Nordeste 40 Nordeste 0 -- -- 84
2019-11-11 21:00:00 18.7 10 Nordeste 33 Nordeste 0 -- -- 83
2019-11-11 20:00:00 18.7 13 Norte 33 Norte 0 -- -- 83
2019-11-11 19:00:00 18.4 7 Nordeste 38 Norte 0 -- -- 84
2019-11-11 18:00:00 18.8 9 Norte 30 Nordeste 0 -- -- 77
2019-11-11 17:00:00 18.9 13 Norte 33 Nordeste 0 -- -- 82
2019-11-11 16:00:00 19.5 10 Norte 30 Nordeste 0 -- -- 74
2019-11-11 15:00:00 20.5 10 Norte 36 Nordeste 0 -- -- 68
2019-11-11 14:00:00 20 12 Nordeste 34 Norte 0 -- -- 73
2019-11-11 13:00:00 20 8 Nordeste 33 Nordeste 0 -- -- 77
2019-11-11 12:00:00 20.5 13 Norte 28 Nordeste 0 -- -- 68
2019-11-11 11:00:00 19.2 9 Norte 34 Nordeste 0 -- -- 75
2019-11-11 10:00:00 18.9 9 Norte 32 Nordeste 0 -- -- 74
2019-11-11 09:00:00 18.6 10 Norte 35 Norte 0 -- -- 76
2019-11-11 08:00:00 18.4 13 Nordeste 40 Nordeste 0 -- -- 74
2019-11-11 07:00:00 18.6 13 Nordeste 45 Nordeste 0 -- -- 72
2019-11-11 06:00:00 18.6 10 Norte 32 Norte 0 -- -- 73
2019-11-11 05:00:00 18.6 17 Norte 42 Norte 0 -- -- 75
2019-11-11 04:00:00 18.6 9 Norte 28 Norte 0 -- -- 73
2019-11-11 03:00:00 18.8 11 Norte 37 Norte 0 -- -- 67
2019-11-11 02:00:00 18.7 15 Nordeste 40 Nordeste 0 -- -- 77
2019-11-11 01:00:00 18.6 18 Nordeste 34 Norte 0 -- -- 73
2019-11-11 00:00:00 18.6 10 Nordeste 37 Norte 0 -- -- 74
2019-11-10 23:00:00 18.8 18 Nordeste 34 Norte 0 -- -- 77
2019-11-10 22:00:00 19 13 Nordeste 35 Nordeste 0 -- -- 80
2019-11-10 21:00:00 19 21 Norte 38 Norte 0 -- -- 81
2019-11-10 20:00:00 19.2 15 Norte 34 Nordeste 0 -- -- 88
2019-11-10 19:00:00 19.3 20 Norte 44 Nordeste 0 -- -- 87
2019-11-10 18:00:00 19.5 14 Nordeste 41 Nordeste 0 -- -- 82
2019-11-10 17:00:00 19.8 11 Norte 33 Nordeste 0 -- -- 79
2019-11-10 16:00:00 20.5 10 Nordeste 36 Nordeste 0 -- -- 76
2019-11-10 15:00:00 21.2 11 Norte 33 Nordeste 0 -- -- 70
2019-11-10 14:00:00 21 15 Norte 33 Nordeste 0 -- -- 65
2019-11-10 13:00:00 20.4 13 Nordeste 37 Nordeste 0 -- -- 71
2019-11-10 12:00:00 20.5 10 Nordeste 41 Norte 0 -- -- 66
2019-11-10 11:00:00 19.6 18 Norte 41 Norte 0 -- -- 69
2019-11-10 10:00:00 19 16 Nordeste 38 Norte 0 -- -- 74
2019-11-10 09:00:00 18.8 17 Norte 42 Norte 0 -- -- 72
2019-11-10 08:00:00 18.6 14 Nordeste 35 Nordeste 0 -- -- 70
2019-11-10 07:00:00 18.3 15 Nordeste 38 Nordeste 0 -- -- 76
2019-11-10 06:00:00 18.3 12 Norte 43 Norte 0 -- -- 70
2019-11-10 05:00:00 18.6 22 Norte 48 Norte 0 -- -- 71
2019-11-10 04:00:00 18.5 18 Nordeste 42 Norte 0 -- -- 71
2019-11-10 03:00:00 18.3 18 Nordeste 36 Norte 0 -- -- 72
2019-11-10 02:00:00 18 15 Nordeste 39 Norte 0 -- -- 78
2019-11-10 01:00:00 18.4 12 Norte 39 Nordeste 0 -- -- 68
2019-11-10 00:00:00 18.3 9 Nordeste 41 Norte 0 -- -- 72
2019-11-09 23:00:00 18.6 14 Nordeste 32 Nordeste 0 -- -- 71
2019-11-09 22:00:00 18 15 Norte 37 Norte 0 -- -- 82
2019-11-09 21:00:00 18.5 9 Norte 42 Norte 0 -- -- 73
2019-11-09 20:00:00 18.3 14 Nordeste 35 Norte 0 -- -- 77
2019-11-09 19:00:00 18.7 14 Norte 41 Norte 0 -- -- 76
2019-11-09 18:00:00 18.9 18 Norte 35 Norte 0 -- -- 67
2019-11-09 17:00:00 19.1 15 Nordeste 48 Norte 0 -- -- 71
2019-11-09 16:00:00 19 15 Nordeste 37 Norte 0 -- -- 79
2019-11-09 15:00:00 20 13 Nordeste 39 Nordeste 0 -- -- 73
2019-11-09 14:00:00 20.8 11 Norte 36 Norte 0 -- -- 58
2019-11-09 13:00:00 20.3 14 Nordeste 41 Norte 0 -- -- 71
2019-11-09 12:00:00 19.7 18 Norte 35 Norte 0 -- -- 65
2019-11-09 11:00:00 20.5 14 Nordeste 33 Norte 0 -- -- 61
2019-11-09 10:00:00 19.5 8 Nordeste 31 Norte 0 -- -- 69
2019-11-09 09:00:00 18.6 9 Norte 32 Este 0 -- -- 78
2019-11-09 08:00:00 18.7 10 Norte 34 Nordeste 0 -- -- 78
2019-11-09 07:00:00 18.5 9 Nordeste 33 Nordeste 0 -- -- 73
2019-11-09 06:00:00 18.7 13 Nordeste 33 Norte 0 -- -- 67
2019-11-09 05:00:00 18.3 11 Nordeste 47 Norte 0 -- -- 79
2019-11-09 04:00:00 18.6 15 Nordeste 36 Nordeste 0 -- -- 75
2019-11-09 03:00:00 18.5 11 Norte 32 Norte 0 -- -- 72
2019-11-09 02:00:00 18.7 9 Nordeste 28 Nordeste 0 -- -- 66
2019-11-09 01:00:00 18.7 10 Norte 28 Nordeste 0 -- -- 70
2019-11-09 00:00:00 18.9 12 Nordeste 37 Norte 0 -- -- 64
2019-11-08 23:00:00 18.9 12 Norte 32 Noroeste 0 -- -- 73
2019-11-08 22:00:00 18.8 8 Nordeste 33 Norte 0 -- -- 64
2019-11-08 21:00:00 19 18 Nordeste 36 Nordeste 0 -- -- 68
2019-11-08 20:00:00 18.9 14 Nordeste 37 Norte 0 -- -- 76
2019-11-08 19:00:00 19.1 19 Nordeste 40 Nordeste 0 -- -- 72
2019-11-08 18:00:00 19.1 14 Norte 37 Nordeste 0 -- -- 77
2019-11-08 17:00:00 19.4 15 Norte 34 Nordeste 0 -- -- 79
2019-11-08 16:00:00 19.7 10 Norte 38 Nordeste 0 -- -- 77
2019-11-08 15:00:00 19.8 18 Norte 40 Nordeste 0 -- -- 80
2019-11-08 14:00:00 20 20 Norte 43 Nordeste 0 -- -- 82
2019-11-08 13:00:00 20 11 Norte 31 Norte 0 -- -- 87
2019-11-08 12:00:00 21.3 11 Nordeste 23 Nordeste 0 -- -- 75
2019-11-08 11:00:00 20.1 8 Norte 26 Norte 0 -- -- 82
2019-11-08 10:00:00 20 7 Norte 25 Norte 0 -- -- 81
2019-11-08 09:00:00 19.5 11 Norte 28 Norte 0 -- -- 78
2019-11-08 08:00:00 19.2 8 Norte 19 Norte 0 -- -- 79
2019-11-08 07:00:00 19 5 Nordeste 21 Noroeste 0 -- -- 80
2019-11-08 06:00:00 19.1 5 Nordeste 27 Nordeste 0 -- -- 78
2019-11-08 05:00:00 19 8 Nordeste 30 Nordeste 0 -- -- 81
2019-11-08 04:00:00 19.1 11 Nordeste 36 Norte 0 -- -- 77
2019-11-08 03:00:00 19 12 Nordeste 31 Norte 0 -- -- 80
2019-11-08 02:00:00 18.6 13 Norte 32 Norte 0 -- -- 88
2019-11-08 01:00:00 18.3 9 Nordeste 30 Norte 0 -- -- 87
2019-11-08 00:00:00 18.3 16 Norte 38 Nordeste 0 -- -- 89
2019-11-07 23:00:00 18.5 12 Nordeste 32 Norte 0 -- -- 87
2019-11-07 22:00:00 18.6 6 Norte 25 Nordeste 0 -- -- 88
2019-11-07 21:00:00 18.5 6 Norte 27 Norte 0 -- -- 89
2019-11-07 20:00:00 18.7 8 Norte 39 Nordeste 0 -- -- 87
2019-11-07 19:00:00 18.6 8 Norte 32 Nordeste 0 -- -- 85
2019-11-07 18:00:00 19.4 9 Norte 30 Nordeste 0 -- -- 85
2019-11-07 17:00:00 19.3 9 Norte 30 Nordeste 0 -- -- 84
2019-11-07 16:00:00 19.4 10 Norte 36 Norte 0 -- -- 84
2019-11-07 15:00:00 20 10 Nordeste 28 Nordeste 0 -- -- 81
2019-11-07 14:00:00 20.5 13 Nordeste 29 Norte 0 -- -- 73
2019-11-07 13:00:00 19.9 10 Norte 34 Nordeste 0 -- -- 77
2019-11-07 12:00:00 19.1 9 Norte 27 Norte 0 -- -- 81
2019-11-07 11:00:00 18.6 9 Nordeste 33 Nordeste 0 -- -- 80
2019-11-07 10:00:00 18.7 8 Norte 32 Nordeste 0 -- -- 83
2019-11-07 09:00:00 18.4 7 Norte 37 Nordeste 0 -- -- 80
2019-11-07 08:00:00 18.5 11 Norte 30 Nordeste 0 -- -- 75
2019-11-07 07:00:00 17.9 7 Norte 23 Norte 0 -- -- 77
2019-11-07 06:00:00 17.5 13 Norte 32 Nordeste 0 -- -- 88
2019-11-07 05:00:00 17.9 5 Noroeste 19 Norte 0 -- -- 81
2019-11-07 04:00:00 17.9 8 Norte 25 Nordeste 0 -- -- 75
2019-11-07 03:00:00 17.3 8 Nordeste 30 Nordeste 0 -- -- 84
2019-11-07 02:00:00 16.7 4 Sudeste 30 Norte 0 -- -- 90
2019-11-07 01:00:00 17.5 7 Noroeste 24 Noroeste 0 -- -- 82
2019-11-07 00:00:00 16.9 5 Nordeste 26 Norte 0.8 -- -- 90
2019-11-06 23:00:00 17.3 7 Norte 33 Nordeste 0.2 -- -- 91
2019-11-06 22:00:00 18.2 14 Norte 36 Norte 0 -- -- 83
2019-11-06 21:00:00 18 8 Norte 31 Nordeste 0 -- -- 82
2019-11-06 20:00:00 18 13 Nordeste 28 Norte 0 -- -- 82
2019-11-06 19:00:00 18.1 15 Nordeste 37 Norte 0 -- -- 82
2019-11-06 18:00:00 18.9 15 Norte 37 Norte 0 -- -- 76
2019-11-06 17:00:00 19.1 15 Norte 36 Norte 0 -- -- 74
2019-11-06 16:00:00 19.3 7 Norte 25 Nordeste 0 -- -- 78
2019-11-06 15:00:00 19.5 11 Norte 32 Nordeste 0 -- -- 74
2019-11-06 14:00:00 19.1 16 Norte 37 Norte 0 -- -- 78
2019-11-06 13:00:00 19.9 12 Nordeste 27 Norte 0 -- -- 68
2019-11-06 12:00:00 19.3 13 Norte 37 Nordeste 0 -- -- 74
2019-11-06 11:00:00 19 11 Nordeste 29 Norte 0 -- -- 78
2019-11-06 10:00:00 18.9 15 Norte 32 Nordeste 0 -- -- 67
2019-11-06 09:00:00 18.2 18 Nordeste 36 Norte 0 -- -- 78
2019-11-06 08:00:00 18.2 8 Nordeste 28 Este 0 -- -- 77
2019-11-06 07:00:00 18.3 9 Nordeste 33 Noroeste 0 -- -- 70
2019-11-06 06:00:00 18.3 10 Norte 32 Nordeste 0 -- -- 72
2019-11-06 05:00:00 18.5 7 Norte 28 Nordeste 0 -- -- 74
2019-11-06 04:00:00 18.1 8 Norte 23 Norte 0 -- -- 80
2019-11-06 03:00:00 17.9 6 Nordeste 26 Norte 0 -- -- 85
2019-11-06 02:00:00 17.6 9 Nordeste 28 Norte 0 -- -- 87
2019-11-06 01:00:00 17.8 17 Norte 33 Nordeste 0 -- -- 89
2019-11-06 00:00:00 17.6 15 Nordeste 37 Norte 0 -- -- 93
2019-11-05 23:00:00 17.7 13 Nordeste 27 Nordeste 0 -- -- 98
2019-11-05 22:00:00 17.4 19 Nordeste 37 Nordeste 1 -- -- 98
2019-11-05 21:00:00 18.3 13 Nordeste 34 Nordeste 0 -- -- 91
2019-11-05 20:00:00 19.3 10 Nordeste 31 Nordeste 0 -- -- 87
2019-11-05 19:00:00 19.7 7 Nordeste 22 Nordeste 0 -- -- 83
2019-11-05 18:00:00 19.8 9 Norte 27 Nordeste 0 -- -- 83
2019-11-05 17:00:00 19.8 14 Nordeste 26 Nordeste 0 -- -- 83
2019-11-05 16:00:00 19.7 12 Nordeste 36 Nordeste 0 -- -- 89
2019-11-05 15:00:00 20.9 16 Nordeste 35 Nordeste 0 -- -- 74
2019-11-05 14:00:00 20.7 11 Nordeste 30 Este 0 -- -- 80
2019-11-05 13:00:00 21.6 12 Nordeste 25 Norte 0 -- -- 72
2019-11-05 12:00:00 21.7 6 Nordeste 26 Noroeste 0 -- -- 67
2019-11-05 11:00:00 21.3 12 Nordeste 27 Nordeste 0 -- -- 75
2019-11-05 10:00:00 20.6 16 Nordeste 33 Nordeste 0 -- -- 73
2019-11-05 09:00:00 19.9 10 Nordeste 25 Nordeste 0 -- -- 79
2019-11-05 08:00:00 19.4 6 Nordeste 22 Este 0 -- -- 78
2019-11-05 07:00:00 19 4 Noroeste 15 Oeste 0 -- -- 74
2019-11-05 06:00:00 18.3 3 Nordeste 12 Noroeste 0 -- -- 75
2019-11-05 05:00:00 18.3 3 Noroeste 15 Norte 0 -- -- 78
2019-11-05 04:00:00 19.6 5 Norte 22 Nordeste 0 -- -- 77
2019-11-05 03:00:00 20 9 Norte 24 Noroeste 0 -- -- 74
2019-11-05 02:00:00 19.9 9 Norte 20 Norte 0 -- -- 76
2019-11-05 01:00:00 19.6 6 Norte 27 Norte 0 -- -- 83
2019-11-05 00:00:00 19.7 9 Norte 25 Nordeste 0 -- -- 80
2019-11-04 23:00:00 19.7 10 Norte 34 Nordeste 0 -- -- 77
2019-11-04 22:00:00 19.7 9 Nordeste 31 Nordeste 0 -- -- 81
2019-11-04 21:00:00 19.7 14 Nordeste 26 Nordeste 0 -- -- 80
2019-11-04 20:00:00 19.4 3 Nordeste 18 Norte 0 -- -- 83
2019-11-04 19:00:00 19.7 8 Norte 21 Nordeste 0 -- -- 81
2019-11-04 18:00:00 19.9 9 Nordeste 21 Este 0 -- -- 81
2019-11-04 17:00:00 20.7 6 Nordeste 23 Nordeste 0 -- -- 78
2019-11-04 16:00:00 21.3 7 Nordeste 21 Nordeste 0 -- -- 76
2019-11-04 15:00:00 22 9 Nordeste 20 Nordeste 0 -- -- 72
2019-11-04 14:00:00 22.4 9 Nordeste 19 Nordeste 0 -- -- 70
2019-11-04 13:00:00 22.4 5 Nordeste 18 Nordeste 0 -- -- 68
2019-11-04 12:00:00 21.9 9 Nordeste 20 Nordeste 0 -- -- 71
2019-11-04 11:00:00 21 8 Nordeste 23 Nordeste 0 -- -- 75
2019-11-04 10:00:00 20.1 8 Nordeste 17 Norte 0 -- -- 78
2019-11-04 09:00:00 19.5 6 Nordeste 17 Noroeste 0 -- -- 79
2019-11-04 08:00:00 19.2 5 Nordeste 22 Nordeste 0 -- -- 83
2019-11-04 07:00:00 19.2 12 Nordeste 24 Nordeste 0 -- -- 86
2019-11-04 06:00:00 19.2 10 Nordeste 21 Norte 0 -- -- 89
2019-11-04 05:00:00 19.2 7 Norte 17 Nordeste 0 -- -- 89
2019-11-04 04:00:00 17.6 2 Nordeste 6 Sudeste 0 -- -- 90
2019-11-04 03:00:00 17.6 4 Sur 10 Sudoeste 0 -- -- 90
2019-11-04 02:00:00 17.8 4 Sudeste 10 Sudoeste 0 -- -- 86
2019-11-04 01:00:00 18.8 2 Sur 12 Sudeste 0 -- -- 86
2019-11-04 00:00:00 18.4 4 Sudeste 9 Sudeste 0 -- -- 90
2019-11-03 23:00:00 17.4 3 Este 10 Sur 0 -- -- 92
2019-11-03 22:00:00 17.8 3 Sudeste 8 Sur 0 -- -- 91
2019-11-03 21:00:00 18.2 3 Sudeste 9 Sur 0 -- -- 90
2019-11-03 20:00:00 18.8 5 Sur 7 Sur 0 -- -- 88
2019-11-03 19:00:00 19.5 2 Este 7 Sudeste 0 -- -- 84
2019-11-03 18:00:00 21.1 2 Nordeste 9 Nordeste 0 -- -- 79
2019-11-03 17:00:00 21.9 5 Nordeste 14 Norte 0 -- -- 78
2019-11-03 16:00:00 22.7 6 Nordeste 18 Nordeste 0 -- -- 75
2019-11-03 15:00:00 23.5 8 Nordeste 21 Noroeste 0 -- -- 70
2019-11-03 14:00:00 24 8 Nordeste 17 Nordeste 0 -- -- 73
2019-11-03 13:00:00 23.4 5 Este 19 Nordeste 0 -- -- 76
2019-11-03 12:00:00 22.8 6 Nordeste 18 Nordeste 0 -- -- 79
2019-11-03 11:00:00 22.2 6 Nordeste 13 Nordeste 0 -- -- 82
2019-11-03 10:00:00 21.7 6 Nordeste 13 Norte 0 -- -- 82
2019-11-03 09:00:00 20.1 2 Nordeste 7 Sur 0 -- -- 79
2019-11-03 08:00:00 19.5 5 Este 12 Nordeste 0 -- -- 88
2019-11-03 07:00:00 17.5 5 Este 12 Sur 0 -- -- 77
2019-11-03 06:00:00 17 5 Sur 9 Sur 0 -- -- 82
2019-11-03 05:00:00 17.4 5 Sur 9 Sur 0 -- -- 84
2019-11-03 04:00:00 19.1 3 Sudeste 11 Nordeste 0 -- -- 85
2019-11-03 03:00:00 18.3 6 Sur 12 Sur 0 -- -- 75
2019-11-03 02:00:00 18.3 5 Sur 13 Sur 0 -- -- 84
2019-11-03 01:00:00 19.1 3 Sudeste 9 Este 0 -- -- 90
2019-11-03 00:00:00 20 4 Sudeste 14 Sur 0 -- -- 86
2019-11-02 23:00:00 19.8 2 Sur 17 Sur 0 -- -- 83
2019-11-02 22:00:00 19.6 8 Sudeste 17 Este 0 -- -- 83
2019-11-02 21:00:00 19.6 4 Sudeste 12 Sudeste 0 -- -- 87
2019-11-02 20:00:00 20.2 4 Este 9 Sur 0 -- -- 86
2019-11-02 19:00:00 20.7 4 Sudeste 10 Sudeste 0 -- -- 87
2019-11-02 18:00:00 21.6 3 Este 16 Nordeste 0 -- -- 83
2019-11-02 17:00:00 23 4 Este 10 Oeste 0 -- -- 75
2019-11-02 16:00:00 22.9 5 Nordeste 18 Nordeste 0 -- -- 78
2019-11-02 15:00:00 23.6 8 Nordeste 16 Nordeste 0 -- -- 74
2019-11-02 14:00:00 23.4 6 Nordeste 20 Este 0 -- -- 73
2019-11-02 13:00:00 23.2 5 Este 21 Nordeste 0 -- -- 75
2019-11-02 12:00:00 23.2 12 Nordeste 21 Nordeste 0 -- -- 75
2019-11-02 11:00:00 22.9 5 Nordeste 18 Nordeste 0 -- -- 75
2019-11-02 10:00:00 22.3 8 Nordeste 19 Nordeste 0 -- -- 78
2019-11-02 09:00:00 21 0 Calma 5 Sudoeste 0 -- -- 84
2019-11-02 08:00:00 20.3 3 Oeste 10 Sudoeste 0 -- -- 86
2019-11-02 07:00:00 20.3 3 Norte 14 Noroeste 0 -- -- 86
2019-11-02 06:00:00 20.4 4 Norte 16 Norte 0 -- -- 86
2019-11-02 05:00:00 20.3 3 Nordeste 12 Norte 0 -- -- 89
2019-11-02 04:00:00 20.4 3 Nordeste 14 Este 0 -- -- 85
2019-11-02 03:00:00 20.5 7 Norte 18 Norte 0 -- -- 84
2019-11-02 02:00:00 20.5 4 Nordeste 13 Norte 0 -- -- 85
2019-11-02 01:00:00 20.6 4 Nordeste 22 Este 0 -- -- 83
2019-11-02 00:00:00 20.5 3 Este 17 Norte 0 -- -- 85
2019-11-01 23:00:00 20.6 3 Norte 11 Este 0 -- -- 83
2019-11-01 22:00:00 20.5 6 Nordeste 22 Nordeste 0 -- -- 86
2019-11-01 21:00:00 20.7 5 Nordeste 13 Norte 0 -- -- 86
2019-11-01 20:00:00 20.7 3 Sudeste 5 Sur 0 -- -- 80
2019-11-01 19:00:00 20.8 3 Nordeste 14 Nordeste 0 -- -- 84
2019-11-01 18:00:00 21 3 Nordeste 18 Norte 0 -- -- 84
2019-11-01 17:00:00 22 3 Norte 14 Nordeste 0 -- -- 79
2019-11-01 16:00:00 21.8 4 Nordeste 26 Norte 0 -- -- 80
2019-11-01 15:00:00 22 8 Nordeste 18 Nordeste 0 -- -- 79
2019-11-01 14:00:00 21.8 8 Nordeste 20 Nordeste 0 -- -- 81
2019-11-01 13:00:00 21.6 6 Nordeste 25 Nordeste 0 -- -- 84
2019-11-01 12:00:00 21.7 7 Nordeste 22 Norte 0 -- -- 81
2019-11-01 11:00:00 21.2 6 Norte 21 Noroeste 0 -- -- 87
2019-11-01 10:00:00 20.9 8 Norte 19 Noroeste 0 -- -- 87
2019-11-01 09:00:00 20.7 6 Noroeste 20 Nordeste 0 -- -- 86
2019-11-01 08:00:00 20.4 7 Norte 24 Nordeste 0 -- -- 89
2019-11-01 07:00:00 20.4 7 Norte 23 Norte 0 -- -- 92
2019-11-01 06:00:00 20.4 6 Norte 22 Norte 0 -- -- 91
2019-11-01 05:00:00 20.4 5 Norte 27 Noroeste 0 -- -- 91
2019-11-01 04:00:00 20.3 5 Norte 24 Nordeste 0 -- -- 90
2019-11-01 03:00:00 20.3 8 Nordeste 24 Noroeste 0 -- -- 92
2019-11-01 02:00:00 20.3 12 Norte 39 Norte 0 -- -- 89
2019-11-01 01:00:00 20.3 9 Norte 28 Norte 0 -- -- 89
2019-11-01 00:00:00 20.5 15 Norte 33 Norte 0 -- -- 88
2019-10-31 23:00:00 20.8 15 Norte 36 Norte 0 -- -- 85
2019-10-31 22:00:00 20.7 8 Norte 29 Norte 0 -- -- 85
2019-10-31 21:00:00 20.7 10 Norte 27 Norte 0 -- -- 86
2019-10-31 20:00:00 20.6 9 Norte 28 Nordeste 0 -- -- 86
2019-10-31 19:00:00 20.8 7 Nordeste 23 Noroeste 0 -- -- 84
2019-10-31 18:00:00 21.1 9 Norte 27 Nordeste 0 -- -- 85
2019-10-31 17:00:00 21.4 10 Norte 30 Norte 0 -- -- 82
2019-10-31 16:00:00 21.9 7 Norte 28 Norte 0 -- -- 78
2019-10-31 15:00:00 22.9 9 Norte 24 Noroeste 0 -- -- 76
2019-10-31 14:00:00 23.4 6 Nordeste 24 Norte 0 -- -- 75
2019-10-31 13:00:00 23.7 8 Norte 23 Este 0 -- -- 72
2019-10-31 12:00:00 23.9 7 Nordeste 25 Nordeste 0 -- -- 72
2019-10-31 11:00:00 22.3 9 Nordeste 24 Nordeste 0 -- -- 80
2019-10-31 10:00:00 21.3 6 Norte 17 Nordeste 0 -- -- 85
2019-10-31 09:00:00 21.1 5 Nordeste 13 Noroeste 0 -- -- 86
2019-10-31 08:00:00 20.1 3 Sur 15 Norte 0 -- -- 89
2019-10-31 07:00:00 20.1 2 Norte 16 Nordeste 0 -- -- 89
2019-10-31 06:00:00 18.8 2 Sudeste 9 Sur 0 -- -- 91
2019-10-31 05:00:00 18.8 3 Sur 10 Este 0 -- -- 86
2019-10-31 04:00:00 19.3 4 Sudeste 9 Sur 0 -- -- 84
2019-10-31 03:00:00 19.8 5 Sudoeste 13 Nordeste 0 -- -- 81
2019-10-31 02:00:00 19.7 3 Sur 11 Sur 0 -- -- 79
2019-10-31 01:00:00 18.7 5 Sur 10 Sur 0 -- -- 81
2019-10-31 00:00:00 20.4 4 Sudeste 13 Sudoeste 0 -- -- 72
2019-10-30 23:00:00 18.6 5 Sur 9 Sudeste 0 -- -- 81
2019-10-30 22:00:00 18.5 5 Sur 9 Sudeste 0 -- -- 82
2019-10-30 21:00:00 19.1 2 Sur 9 Sur 0 -- -- 82
2019-10-30 20:00:00 20 4 Sudeste 7 Sur 0 -- -- 83
2019-10-30 19:00:00 21.6 4 Este 5 Este 0 -- -- 83
2019-10-30 18:00:00 22.5 3 Este 9 Nordeste 0 -- -- 79
2019-10-30 17:00:00 23.2 4 Nordeste 11 Este 0 -- -- 75
2019-10-30 16:00:00 24.3 6 Nordeste 11 Nordeste 0 -- -- 69
2019-10-30 15:00:00 25 5 Este 14 Nordeste 0 -- -- 62
2019-10-30 14:00:00 25.1 7 Nordeste 12 Norte 0 -- -- 59
2019-10-30 13:00:00 25.1 7 Nordeste 15 Nordeste -- -- -- 62
2019-10-30 12:00:00 25.4 5 Nordeste 15 Nordeste -- -- -- 60
2019-10-30 11:00:00 25.5 6 Nordeste 13 Nordeste -- -- -- 55
2019-10-30 10:00:00 24.6 3 Sudoeste 7 Sudoeste -- -- -- 59
2019-10-30 09:00:00 22.4 3 Sur 8 Nordeste -- -- -- 67
2019-10-30 08:00:00 19.6 3 Sudeste 7 Sudeste -- -- -- 79
2019-10-30 07:00:00 21.3 6 Este 10 Este -- -- -- 70
2019-10-30 06:00:00 19.3 2 Sur 6 Sudeste -- -- -- 77
2019-10-30 05:00:00 20.1 5 Este 9 Este -- -- -- 76
2019-10-30 04:00:00 19.3 3 Sur 8 Sur -- -- -- 76
2019-10-30 03:00:00 19.8 0 Calma 7 Sur -- -- -- 75
2019-10-30 02:00:00 19.6 5 Sur 8 Sur -- -- -- 75
2019-10-30 01:00:00 19.9 4 Sudeste 9 Nordeste -- -- -- 77
2019-10-30 00:00:00 19.7 2 Sudeste 6 Nordeste -- -- -- 78
2019-10-29 23:00:00 20.4 3 Sur 10 Este -- -- -- 74
2019-10-29 22:00:00 19.9 3 Sur 8 Sur -- -- -- 79
2019-10-29 21:00:00 20.4 4 Sur 7 Sudeste -- -- -- 79
2019-10-29 20:00:00 21.2 0 Calma 5 Sur -- -- -- 81
2019-10-29 19:00:00 23 4 Nordeste 8 Nordeste -- -- -- 75
2019-10-29 18:00:00 23.9 4 Sudoeste 10 Este -- -- -- 70
2019-10-29 17:00:00 26.1 3 Norte 6 Noroeste -- -- -- 62
2019-10-29 16:00:00 25.8 5 Nordeste 9 Nordeste -- -- -- 64
2019-10-29 15:00:00 26 3 Nordeste 10 Nordeste -- -- -- 63
2019-10-29 14:00:00 25.3 5 Nordeste 12 Nordeste -- -- -- 66
2019-10-29 13:00:00 25.7 8 Nordeste 12 Nordeste -- -- -- 64
2019-10-29 12:00:00 26.3 5 Nordeste 10 Nordeste -- -- -- 59
2019-10-29 11:00:00 25.7 4 Nordeste 8 Este -- -- -- 63
2019-10-29 10:00:00 24.8 4 Nordeste 6 Nordeste -- -- -- 62
2019-10-29 09:00:00 21.9 3 Sur 7 Este -- -- -- 74
2019-10-29 08:00:00 19 2 Sudeste 9 Este -- -- -- 83
2019-10-29 07:00:00 19.6 7 Este 12 Este -- -- -- 78
2019-10-29 06:00:00 19.5 5 Este 6 Nordeste -- -- -- 80
2019-10-29 05:00:00 18.3 4 Este 6 Sudeste -- -- -- 83
2019-10-29 04:00:00 18.6 3 Sudeste 6 Sudeste -- -- -- 83
2019-10-29 03:00:00 19.5 3 Este 7 Este -- -- -- 79
2019-10-29 02:00:00 18.9 4 Este 6 Sudeste -- -- -- 81
2019-10-29 01:00:00 19.2 3 Este 8 Sur -- -- -- 80
2019-10-29 00:00:00 19.3 4 Sudeste 6 Sudeste -- -- -- 81
2019-10-28 23:00:00 19.6 0 Calma 6 Sudeste -- -- -- 81
2019-10-28 22:00:00 20 6 Sur 7 Sur -- -- -- 80
2019-10-28 21:00:00 20.5 3 Sudeste 7 Sudeste -- -- -- 80
2019-10-28 20:00:00 21.4 3 Sudeste 5 Sudeste -- -- -- 78
2019-10-28 19:00:00 22.9 2 Sur 5 Este -- -- -- 73
2019-10-28 18:00:00 24.9 0 Calma 6 Este -- -- -- 65
2019-10-28 17:00:00 25.8 4 Este 10 Nordeste -- -- -- 58
2019-10-28 16:00:00 26.4 5 Nordeste 10 Nordeste -- -- -- 60
2019-10-28 15:00:00 26.7 5 Nordeste 13 Nordeste -- -- -- 61
2019-10-28 14:00:00 25.8 7 Nordeste 12 Nordeste -- -- -- 69
2019-10-28 13:00:00 24.2 6 Nordeste 12 Nordeste -- -- -- 79
2019-10-28 12:00:00 24.7 6 Nordeste 11 Nordeste -- -- -- 74
2019-10-28 11:00:00 25.1 3 Norte 9 Nordeste -- -- -- 66
2019-10-28 10:00:00 23.3 2 Oeste 7 Nordeste -- -- -- 83
2019-10-28 09:00:00 21.2 2 Este 7 Sur -- -- -- 79
2019-10-28 08:00:00 18.8 6 Sur 8 Sudeste -- -- -- 90
2019-10-28 07:00:00 18.7 4 Sur 10 Sur -- -- -- 89
2019-10-28 06:00:00 19 4 Sur 11 Sur -- -- -- 88
2019-10-28 05:00:00 19.1 6 Sur 10 Sur -- -- -- 88
2019-10-28 04:00:00 19.5 8 Sur 11 Sur -- -- -- 87
2019-10-28 03:00:00 19.8 4 Sur 14 Sur -- -- -- 87
2019-10-28 02:00:00 19.8 8 Sur 12 Sur -- -- -- 90
2019-10-28 01:00:00 19.9 8 Sur 11 Sur -- -- -- 92
2019-10-28 00:00:00 20.2 5 Sur 11 Sur -- -- -- 94
2019-10-27 23:00:00 20.6 3 Sur 5 Sur -- -- -- 93
2019-10-27 22:00:00 21.4 2 Sur 10 Nordeste -- -- -- 94
2019-10-27 21:00:00 22.3 7 Nordeste 14 Este -- -- -- 87
2019-10-27 20:00:00 23.1 4 Sudeste 10 Sur -- -- -- 72
2019-10-27 19:00:00 24.5 0 Calma 18 Este -- -- -- 70
2019-10-27 18:00:00 25.4 5 Nordeste 14 Nordeste -- -- -- 63
2019-10-27 17:00:00 26.8 3 Oeste 12 Noroeste -- -- -- 58
2019-10-27 16:00:00 26 0 Calma 8 Este -- -- -- 67
2019-10-27 15:00:00 23.9 2 Norte 7 Noroeste -- -- -- 79
2019-10-27 14:00:00 22.6 5 Nordeste 18 Norte -- -- -- 84
2019-10-27 13:00:00 22.6 6 Nordeste 12 Nordeste -- -- -- 88
2019-10-27 12:00:00 23.2 4 Nordeste 14 Norte -- -- -- 84
2019-10-27 11:00:00 22.6 3 Este 17 Norte -- -- -- 88
2019-10-27 10:00:00 22.5 2 Sur 13 Noroeste -- -- -- 88
2019-10-27 09:00:00 22.9 5 Norte 17 Este -- -- -- 85
2019-10-27 08:00:00 24 4 Sur 27 Sur -- -- -- 74
2019-10-27 07:00:00 26 9 Sudoeste 21 Sudoeste -- -- -- 59
2019-10-27 06:00:00 25.1 6 Sur 23 Sur -- -- -- 62
2019-10-27 05:00:00 22.1 5 Sur 9 Este -- -- -- 86
2019-10-27 04:00:00 22.5 7 Nordeste 12 Nordeste -- -- -- 86
2019-10-27 03:00:00 23.1 3 Sudeste 13 Nordeste -- -- -- 79
2019-10-27 02:00:00 23.5 2 Sur 10 Oeste -- -- -- 74
2019-10-27 01:00:00 23.5 4 Sur 10 Sudeste -- -- -- 73
2019-10-27 00:00:00 22.5 3 Sudeste 10 Oeste -- -- -- 80
2019-10-26 23:00:00 22.1 4 Nordeste 9 Sudeste -- -- -- 81
2019-10-26 22:00:00 21.5 3 Sur 11 Sur -- -- -- 91
2019-10-26 21:00:00 21.6 4 Sudoeste 16 Nordeste -- -- -- 91
2019-10-26 20:00:00 23.1 3 Este 9 Noroeste -- -- -- 85
2019-10-26 19:00:00 24.7 3 Este 10 Este -- -- -- 78
2019-10-26 18:00:00 24.8 5 Sudoeste 10 Nordeste -- -- -- 81
2019-10-26 17:00:00 24.9 3 Norte 9 Nordeste -- -- -- 80
2019-10-26 16:00:00 21.9 3 Sudoeste 14 Este -- -- -- 93
2019-10-26 15:00:00 22.2 4 Este 43 Oeste -- -- -- 89
2019-10-26 14:00:00 21.9 3 Sur 10 Este -- -- -- 87
2019-10-26 13:00:00 22.6 8 Sudoeste 36 Sudoeste -- -- -- 75
2019-10-26 12:00:00 23.1 10 Sur 23 Sudoeste -- -- -- 68
2019-10-26 11:00:00 22.6 3 Sur 12 Sur -- -- -- 84
2019-10-26 10:00:00 18.8 4 Sur 15 Sur -- -- -- 90
2019-10-26 09:00:00 17.1 7 Sur 15 Sudoeste -- -- -- 90
2019-10-26 08:00:00 19.1 12 Sur 35 Sudoeste -- -- -- 84
2019-10-26 07:00:00 19.7 5 Sur 13 Nordeste -- -- -- 77
2019-10-26 06:00:00 20 3 Sudoeste 20 Norte -- -- -- 77
2019-10-26 05:00:00 19.7 5 Sur 15 Sur -- -- -- 69
2019-10-26 04:00:00 19.5 5 Nordeste 8 Nordeste -- -- -- 70
2019-10-26 03:00:00 17.8 3 Este 5 Sudeste -- -- -- 78
2019-10-26 02:00:00 19.5 4 Este 10 Nordeste -- -- -- 70
2019-10-26 01:00:00 17.5 2 Sudeste 6 Sur -- -- -- 82
2019-10-26 00:00:00 17.8 3 Este 8 Este -- -- -- 86
2019-10-25 23:00:00 18.1 4 Sudeste 6 Este -- -- -- 83
2019-10-25 22:00:00 18 0 Calma 7 Este -- -- -- 81
2019-10-25 21:00:00 19.1 4 Nordeste 9 Sudeste -- -- -- 82
2019-10-25 20:00:00 19.8 3 Nordeste 5 Nordeste -- -- -- 80
2019-10-25 19:00:00 20.8 2 Norte 8 Nordeste -- -- -- 74
2019-10-25 18:00:00 21.1 4 Nordeste 8 Nordeste -- -- -- 72
2019-10-25 17:00:00 21.2 4 Norte 10 Nordeste -- -- -- 69
2019-10-25 16:00:00 22.3 6 Norte 10 Norte -- -- -- 69
2019-10-25 15:00:00 20.8 3 Nordeste 8 Norte -- -- -- 75
2019-10-25 14:00:00 20.7 3 Nordeste 9 Este -- -- -- 74
2019-10-25 13:00:00 20.2 4 Nordeste 9 Este -- -- -- 74
2019-10-25 12:00:00 19.8 3 Norte 7 Noroeste -- -- -- 73
2019-10-25 11:00:00 18.8 3 Sudoeste 6 Sudoeste -- -- -- 76
2019-10-25 10:00:00 17 0 Calma 9 Sudeste -- -- -- 80
2019-10-25 09:00:00 14.6 3 Sudeste 7 Sur -- -- -- 90
2019-10-25 08:00:00 13.6 6 Sur 9 Sur -- -- -- 87
2019-10-25 07:00:00 13.5 6 Sur 9 Sur -- -- -- 86
2019-10-25 06:00:00 13.5 7 Sur 10 Sudeste -- -- -- 86
2019-10-25 05:00:00 14.4 4 Sur 11 Sur -- -- -- 82
2019-10-25 04:00:00 14.9 5 Sur 12 Sur -- -- -- 80
2019-10-25 03:00:00 15.3 7 Sur 12 Sur -- -- -- 79
2019-10-25 02:00:00 15.6 7 Sur 13 Sur -- -- -- 77
2019-10-25 01:00:00 15.7 8 Sur 13 Sur -- -- -- 78
2019-10-25 00:00:00 15.9 7 Sur 11 Sur -- -- -- 80
2019-10-24 23:00:00 16.3 8 Sur 14 Sur -- -- -- 74
2019-10-24 22:00:00 16.9 8 Sur 15 Sur -- -- -- 70
2019-10-24 21:00:00 17.5 5 Sur 9 Sur -- -- -- 79
2019-10-24 20:00:00 19.1 0 Calma 17 Nordeste -- -- -- 73
2019-10-24 19:00:00 19.5 6 Nordeste 15 Nordeste -- -- -- 72
2019-10-24 18:00:00 20.4 4 Noroeste 16 Norte -- -- -- 68
2019-10-24 17:00:00 21.7 8 Nordeste 18 Nordeste -- -- -- 61
2019-10-24 16:00:00 22.1 9 Nordeste 19 Nordeste -- -- -- 58
2019-10-24 15:00:00 21.8 9 Nordeste 20 Norte -- -- -- 57
2019-10-24 14:00:00 21.6 7 Nordeste 20 Nordeste -- -- -- 59
2019-10-24 13:00:00 21.2 8 Norte 21 Nordeste -- -- -- 59
2019-10-24 12:00:00 21.2 9 Nordeste 15 Nordeste -- -- -- 59
2019-10-24 11:00:00 20.2 3 Noroeste 8 Oeste -- -- -- 57
2019-10-24 10:00:00 17.7 2 Sur 13 Sur -- -- -- 64
2019-10-24 09:00:00 15.5 10 Sur 17 Sur -- -- -- 70
2019-10-24 08:00:00 15.2 8 Sur 19 Sur -- -- -- 73
2019-10-24 07:00:00 15.1 8 Sur 15 Sur -- -- -- 75
2019-10-24 06:00:00 15.5 9 Sur 16 Sur -- -- -- 73
2019-10-24 05:00:00 16 7 Sur 15 Sur -- -- -- 76
2019-10-24 04:00:00 16.1 7 Sur 13 Sur -- -- -- 78
2019-10-24 03:00:00 16.6 7 Sur 11 Sur -- -- -- 78
2019-10-24 02:00:00 16.9 6 Sur 8 Sur -- -- -- 79
2019-10-24 01:00:00 17.4 2 Este 9 Norte -- -- -- 77
2019-10-24 00:00:00 18.5 3 Norte 14 Nordeste -- -- -- 73
2019-10-23 23:00:00 18.8 6 Nordeste 21 Norte -- -- -- 72
2019-10-23 22:00:00 18.9 8 Norte 18 Norte -- -- -- 70
2019-10-23 21:00:00 19 9 Nordeste 20 Nordeste -- -- -- 72
2019-10-23 20:00:00 18.9 5 Nordeste 18 Norte -- -- -- 73
2019-10-23 19:00:00 19.2 5 Nordeste 16 Nordeste -- -- -- 71
2019-10-23 18:00:00 19.7 6 Nordeste 16 Nordeste -- -- -- 66
2019-10-23 17:00:00 19.9 5 Norte 19 Noroeste -- -- -- 70
2019-10-23 16:00:00 20.3 7 Nordeste 18 Nordeste -- -- -- 67
2019-10-23 15:00:00 20.7 9 Nordeste 20 Nordeste -- -- -- 66
2019-10-23 14:00:00 19.8 9 Norte 23 Norte -- -- -- 70
2019-10-23 13:00:00 20.8 5 Norte 17 Nordeste -- -- -- 59
2019-10-23 12:00:00 19.8 5 Norte 18 Nordeste -- -- -- 62
2019-10-23 11:00:00 19.3 9 Nordeste 22 Norte -- -- -- 67
2019-10-23 10:00:00 18.9 9 Norte 24 Norte -- -- -- 69
2019-10-23 09:00:00 18.2 7 Norte 17 Norte -- -- -- 72
2019-10-23 08:00:00 17.9 5 Norte 17 Nordeste -- -- -- 71
2019-10-23 07:00:00 17.7 10 Nordeste 23 Norte -- -- -- 79
2019-10-23 06:00:00 17.9 8 Norte 17 Norte -- -- -- 77
2019-10-23 05:00:00 18.1 5 Norte 18 Nordeste -- -- -- 68
2019-10-23 04:00:00 17.9 7 Nordeste 26 Nordeste -- -- -- 68
2019-10-23 03:00:00 17.5 10 Nordeste 28 Nordeste -- -- -- 80
2019-10-23 02:00:00 18.2 9 Norte 30 Este -- -- -- 70
2019-10-23 01:00:00 18.6 12 Nordeste 27 Norte -- -- -- 69
2019-10-23 00:00:00 18.2 10 Norte 32 Nordeste -- -- -- 67
2019-10-22 23:00:00 18.6 12 Nordeste 29 Norte -- -- -- 64
2019-10-22 22:00:00 18.8 13 Nordeste 25 Nordeste -- -- -- 66
2019-10-22 21:00:00 18.8 10 Norte 24 Norte -- -- -- 62
2019-10-22 20:00:00 18.7 6 Norte 25 Norte -- -- -- 68
2019-10-22 19:00:00 19.3 8 Nordeste 30 Nordeste -- -- -- 62
2019-10-22 18:00:00 19.6 8 Nordeste 25 Norte -- -- -- 59
2019-10-22 17:00:00 20.9 9 Norte 25 Norte -- -- -- 58
2019-10-22 16:00:00 21.2 10 Norte 22 Noroeste -- -- -- 55
2019-10-22 15:00:00 20.4 9 Nordeste 27 Nordeste -- -- -- 55
2019-10-22 14:00:00 20.2 10 Norte 30 Nordeste -- -- -- 61
2019-10-22 13:00:00 20.9 10 Nordeste 22 Norte -- -- -- 64
2019-10-22 12:00:00 19.5 8 Norte 22 Norte -- -- -- 66
2019-10-22 11:00:00 19.2 7 Norte 25 Noroeste -- -- -- 60
2019-10-22 10:00:00 18.8 13 Norte 27 Norte -- -- -- 65
2019-10-22 09:00:00 18.1 5 Norte 22 Norte -- -- -- 58
2019-10-22 08:00:00 18.2 10 Nordeste 30 Norte -- -- -- 57
2019-10-22 07:00:00 18.2 8 Nordeste 29 Norte -- -- -- 70
2019-10-22 06:00:00 18.2 13 Norte 35 Norte -- -- -- 73
2019-10-22 05:00:00 18.2 10 Nordeste 26 Norte -- -- -- 72
2019-10-22 04:00:00 18.3 11 Norte 25 Nordeste -- -- -- 71
2019-10-22 03:00:00 17.8 6 Norte 27 Norte -- -- -- 72
2019-10-22 02:00:00 18.1 4 Norte 24 Nordeste -- -- -- 74
2019-10-22 01:00:00 18.5 8 Nordeste 24 Nordeste -- -- -- 69
2019-10-22 00:00:00 18.5 8 Norte 28 Nordeste -- -- -- 69
2019-10-21 23:00:00 18.6 10 Norte 28 Nordeste -- -- -- 66
2019-10-21 22:00:00 18.6 10 Norte 28 Nordeste -- -- -- 67
2019-10-21 21:00:00 18.7 9 Nordeste 30 Norte -- -- -- 68
2019-10-21 20:00:00 18.9 9 Norte 28 Nordeste -- -- -- 72
2019-10-21 19:00:00 19 10 Norte 30 Norte -- -- -- 71
2019-10-21 18:00:00 19.1 11 Nordeste 32 Norte -- -- -- 72
2019-10-21 17:00:00 19.5 8 Nordeste 23 Nordeste -- -- -- 70
2019-10-21 16:00:00 20 9 Nordeste 32 Norte -- -- -- 72
2019-10-21 15:00:00 19.8 11 Norte 33 Norte -- -- -- 76
2019-10-21 14:00:00 20.6 12 Norte 29 Norte -- -- -- 68
2019-10-21 13:00:00 20.2 11 Norte 27 Nordeste -- -- -- 70
2019-10-21 12:00:00 19.8 9 Nordeste 26 Norte -- -- -- 69
2019-10-21 11:00:00 19.3 10 Norte 27 Norte -- -- -- 70
2019-10-21 10:00:00 19 12 Norte 27 Nordeste -- -- -- 70
2019-10-21 09:00:00 18.8 13 Norte 26 Nordeste -- -- -- 74
2019-10-21 08:00:00 18.5 8 Nordeste 26 Norte -- -- -- 79
2019-10-21 07:00:00 18.4 6 Norte 24 Norte -- -- -- 79
2019-10-21 06:00:00 18.6 5 Norte 22 Norte -- -- -- 77
2019-10-21 05:00:00 18.5 4 Norte 19 Nordeste -- -- -- 79
2019-10-21 04:00:00 18.8 9 Nordeste 27 Nordeste -- -- -- 75
2019-10-21 03:00:00 18.8 10 Nordeste 26 Nordeste -- -- -- 79
2019-10-21 02:00:00 18.4 4 Norte 16 Nordeste -- -- -- 81
2019-10-21 01:00:00 17.8 4 Norte 9 Norte -- -- -- 86
2019-10-21 00:00:00 17.7 3 Nordeste 11 Sudoeste -- -- -- 90
2019-10-20 23:00:00 17.7 3 Sur 10 Noroeste -- -- -- 93
2019-10-20 22:00:00 18.2 5 Norte 18 Noroeste -- -- -- 94
2019-10-20 21:00:00 18.8 8 Nordeste 19 Nordeste -- -- -- 90
2019-10-20 20:00:00 18.6 5 Nordeste 15 Noroeste -- -- -- 94
2019-10-20 19:00:00 18.5 8 Nordeste 22 Nordeste -- -- -- 96
2019-10-20 18:00:00 18.7 9 Nordeste 33 Norte -- -- -- 98
2019-10-20 17:00:00 19.2 9 Norte 28 Nordeste -- -- -- 97
2019-10-20 16:00:00 19.6 12 Nordeste 27 Norte -- -- -- 95
2019-10-20 15:00:00 20.3 5 Nordeste 21 Nordeste -- -- -- 91
2019-10-20 14:00:00 21.8 10 Nordeste 20 Nordeste -- -- -- 81
2019-10-20 13:00:00 21.4 11 Nordeste 24 Nordeste -- -- -- 82
2019-10-20 12:00:00 22 7 Nordeste 19 Norte -- -- -- 84
2019-10-20 11:00:00 21.5 8 Nordeste 15 Nordeste -- -- -- 81
2019-10-20 10:00:00 20.5 6 Nordeste 17 Nordeste 0 -- -- 83
2019-10-20 09:00:00 20 5 Nordeste 12 Norte 0 -- -- 86
2019-10-20 08:00:00 19.6 3 Nordeste 6 Nordeste 0 -- -- 83
2019-10-20 07:00:00 19.5 2 Sudeste 8 Este 0 -- -- 85
2019-10-20 06:00:00 19.6 3 Nordeste 19 Nordeste 0 -- -- 81
2019-10-20 05:00:00 19.8 6 Nordeste 15 Nordeste 0 -- -- 83
2019-10-20 04:00:00 19.9 5 Nordeste 14 Nordeste 0 -- -- 85
2019-10-20 03:00:00 19.9 6 Norte 18 Este 0 -- -- 82
2019-10-20 02:00:00 19.8 4 Nordeste 12 Nordeste 0 -- -- 80
2019-10-20 01:00:00 20.1 5 Norte 10 Noroeste 0 -- -- 84
2019-10-20 00:00:00 20.1 5 Nordeste 13 Nordeste 0 -- -- 81
2019-10-19 23:00:00 20 4 Nordeste 9 Norte 0 -- -- 78
2019-10-19 22:00:00 19.4 3 Oeste 13 Sudoeste 0 -- -- 76
2019-10-19 21:00:00 20 4 Oeste 13 Oeste 0 -- -- 72
2019-10-19 20:00:00 20.5 4 Este 13 Sudoeste 0 -- -- 68
2019-10-19 19:00:00 21.5 4 Nordeste 14 Este 0 -- -- 65
2019-10-19 18:00:00 22.9 5 Nordeste 14 Nordeste 0 -- -- 65
2019-10-19 17:00:00 23.3 9 Nordeste 17 Nordeste 0 -- -- 64
2019-10-19 16:00:00 23.8 6 Nordeste 15 Nordeste 0 -- -- 56
2019-10-19 15:00:00 23.5 8 Nordeste 17 Nordeste 0 -- -- 56
2019-10-19 14:00:00 23.1 7 Nordeste 19 Nordeste 0 -- -- 57
2019-10-19 13:00:00 23 9 Norte 21 Nordeste 0 -- -- 63
2019-10-19 12:00:00 21.8 10 Nordeste 20 Nordeste 0 -- -- 67
2019-10-19 11:00:00 20.7 11 Nordeste 18 Norte 0 -- -- 77
2019-10-19 10:00:00 20.3 4 Nordeste 15 Nordeste 0 -- -- 68
2019-10-19 09:00:00 19.1 2 Sur 6 Sudeste 0 -- -- 76
2019-10-19 08:00:00 19.3 0 Calma 8 Noroeste 0 -- -- 77
2019-10-19 07:00:00 19.2 3 Norte 8 Noroeste 0 -- -- 80
2019-10-19 06:00:00 18.3 3 Sur 8 Sudoeste 0 -- -- 79
2019-10-19 05:00:00 18.4 3 Sur 6 Sur 0 -- -- 79
2019-10-19 04:00:00 18.9 2 Sudeste 8 Nordeste 0 -- -- 79
2019-10-19 03:00:00 19.6 4 Norte 14 Nordeste 0 -- -- 80
2019-10-19 02:00:00 19.3 3 Nordeste 9 Sur 0 -- -- 83
2019-10-19 01:00:00 18.8 2 Sur 6 Sur 0 -- -- 81
2019-10-19 00:00:00 18.9 4 Sudeste 9 Nordeste 0 -- -- 80
2019-10-18 23:00:00 19.6 3 Nordeste 11 Norte 0 -- -- 79
2019-10-18 22:00:00 19.8 5 Norte 15 Nordeste 0 -- -- 79
2019-10-18 21:00:00 20 3 Norte 18 Nordeste 0 -- -- 80
2019-10-18 20:00:00 20.1 4 Nordeste 15 Nordeste 0 -- -- 77
2019-10-18 19:00:00 20.3 5 Nordeste 19 Nordeste 0 -- -- 77
2019-10-18 18:00:00 21 6 Nordeste 20 Norte 0 -- -- 75
2019-10-18 17:00:00 21.2 8 Nordeste 19 Norte 0 -- -- 72
2019-10-18 16:00:00 22.6 8 Nordeste 24 Nordeste 0 -- -- 65
2019-10-18 15:00:00 22.8 8 Nordeste 21 Norte 0 -- -- 67
2019-10-18 14:00:00 21.6 11 Nordeste 22 Nordeste 0 -- -- 72
2019-10-18 13:00:00 21.7 8 Nordeste 20 Norte 0 -- -- 70
2019-10-18 12:00:00 22.1 9 Nordeste 21 Nordeste 0 -- -- 68
2019-10-18 11:00:00 20.9 4 Este 12 Este 0 -- -- 69
2019-10-18 10:00:00 19.5 4 Sur 8 Sudeste 0 -- -- 75
2019-10-18 09:00:00 16.9 3 Sur 11 Sur 0 -- -- 80
2019-10-18 08:00:00 16.6 6 Sur 14 Sur 0 -- -- 82
2019-10-18 07:00:00 16.6 6 Sudeste 10 Sur 0 -- -- 81
2019-10-18 06:00:00 17.3 4 Sudeste 8 Sur 0 -- -- 81
2019-10-18 05:00:00 17.6 3 Sur 9 Nordeste 0 -- -- 80
2019-10-18 04:00:00 18.6 2 Nordeste 6 Norte 0 -- -- 80
2019-10-18 03:00:00 19 0 Calma 12 Nordeste 0 -- -- 79
2019-10-18 02:00:00 19.4 6 Nordeste 15 Norte 0 -- -- 78
2019-10-18 01:00:00 19.5 7 Nordeste 18 Nordeste 0 -- -- 77
2019-10-18 00:00:00 19.6 6 Nordeste 15 Nordeste 0 -- -- 77
2019-10-17 23:00:00 19.7 5 Norte 22 Nordeste 0 -- -- 76
2019-10-17 22:00:00 19.8 5 Nordeste 22 Nordeste 0 -- -- 75
2019-10-17 21:00:00 19.9 6 Norte 13 Noroeste 0 -- -- 72
2019-10-17 20:00:00 20 5 Nordeste 14 Nordeste 0 -- -- 70
2019-10-17 19:00:00 20.4 5 Nordeste 11 Norte 0 -- -- 68
2019-10-17 18:00:00 20.8 8 Norte 17 Noroeste 0 -- -- 66
2019-10-17 17:00:00 22.6 7 Norte 24 Norte 0 -- -- 59
2019-10-17 16:00:00 22.8 10 Norte 22 Norte 0 -- -- 58
2019-10-17 15:00:00 23 6 Norte 19 Norte 0 -- -- 60
2019-10-17 14:00:00 22.1 8 Norte 18 Norte 0 -- -- 61
2019-10-17 13:00:00 21.7 9 Norte 21 Nordeste 0 -- -- 63
2019-10-17 12:00:00 20.7 9 Norte 16 Nordeste 0 -- -- 68
2019-10-17 11:00:00 20 8 Nordeste 18 Noroeste 0 -- -- 71
2019-10-17 10:00:00 19.6 6 Norte 18 Nordeste 0 -- -- 74
2019-10-17 09:00:00 19.1 7 Nordeste 13 Nordeste 0 -- -- 74
2019-10-17 08:00:00 19 4 Norte 12 Norte 0 -- -- 76
2019-10-17 07:00:00 19.1 4 Norte 12 Norte 0 -- -- 75
2019-10-17 06:00:00 19.2 4 Norte 13 Nordeste 0 -- -- 75
2019-10-17 05:00:00 19.3 3 Norte 12 Norte 0 -- -- 76
2019-10-17 04:00:00 19.1 6 Norte 12 Norte 0 -- -- 76
2019-10-17 03:00:00 19.2 2 Nordeste 10 Norte 0 -- -- 78
2019-10-17 02:00:00 19.4 5 Norte 21 Norte 0 -- -- 80
2019-10-17 01:00:00 19.7 7 Nordeste 19 Nordeste 0 -- -- 81
2019-10-17 00:00:00 19.9 6 Norte 16 Norte 0 -- -- 79
2019-10-16 23:00:00 19.9 5 Norte 15 Norte 0 -- -- 80
2019-10-16 22:00:00 19.8 5 Norte 15 Nordeste 0 -- -- 80
2019-10-16 21:00:00 19.8 7 Norte 18 Norte 0 -- -- 79
2019-10-16 20:00:00 19.9 4 Nordeste 17 Nordeste 0 -- -- 80
2019-10-16 19:00:00 20 6 Nordeste 14 Nordeste 0 -- -- 79
2019-10-16 18:00:00 20.1 6 Norte 14 Norte 0 -- -- 80
2019-10-16 17:00:00 20.4 4 Nordeste 13 Norte 0 -- -- 80
2019-10-16 16:00:00 20.1 5 Nordeste 16 Nordeste 0 -- -- 81
2019-10-16 15:00:00 20.9 6 Norte 20 Norte 0 -- -- 77
2019-10-16 14:00:00 20.8 6 Nordeste 16 Nordeste 0 -- -- 74
2019-10-16 13:00:00 20.7 6 Norte 14 Norte 0 -- -- 75
2019-10-16 12:00:00 20.4 6 Norte 14 Norte 0 -- -- 78
2019-10-16 11:00:00 20.1 7 Norte 17 Nordeste 0 -- -- 77
2019-10-16 10:00:00 19.5 6 Nordeste 15 Norte 0 -- -- 80
2019-10-16 09:00:00 19.2 7 Nordeste 15 Norte 0 -- -- 81
2019-10-16 08:00:00 19.2 5 Norte 16 Nordeste 0 -- -- 82
2019-10-16 07:00:00 19.1 3 Nordeste 12 Nordeste 0 -- -- 82
2019-10-16 06:00:00 19 3 Noroeste 10 Norte 0 -- -- 81
2019-10-16 05:00:00 18.8 5 Noroeste 14 Sudeste 0 -- -- 80
2019-10-16 04:00:00 18.1 4 Sudeste 12 Sudeste 0 -- -- 80
2019-10-16 03:00:00 18.6 7 Sur 15 Sudoeste 0 -- -- 76
2019-10-16 02:00:00 18.5 6 Sur 13 Sur 0 -- -- 78
2019-10-16 01:00:00 19.2 2 Sur 14 Nordeste 0 -- -- 78
2019-10-16 00:00:00 19.6 5 Nordeste 21 Noroeste 0 -- -- 78
2019-10-15 23:00:00 19.7 10 Norte 24 Nordeste 0 -- -- 78
2019-10-15 22:00:00 19.7 7 Norte 23 Norte 0 -- -- 80
2019-10-15 21:00:00 19.7 4 Norte 17 Nordeste 0 -- -- 77
2019-10-15 20:00:00 19.8 5 Nordeste 17 Norte 0 -- -- 76
2019-10-15 19:00:00 19.9 7 Nordeste 19 Nordeste 0 -- -- 73
2019-10-15 18:00:00 20.1 8 Nordeste 20 Norte 0 -- -- 74
2019-10-15 17:00:00 20.5 8 Norte 18 Nordeste 0 -- -- 73
2019-10-15 16:00:00 20.5 5 Nordeste 18 Norte 0 -- -- 70
2019-10-15 15:00:00 20.7 6 Norte 19 Norte 0 -- -- 71
2019-10-15 14:00:00 21.2 6 Norte 17 Norte 0 -- -- 71
2019-10-15 13:00:00 21.2 7 Nordeste 15 Norte 0 -- -- 69
2019-10-15 12:00:00 20.4 2 Sudeste 20 Nordeste 0 -- -- 74
2019-10-15 11:00:00 19.9 6 Nordeste 21 Norte 0 -- -- 78
2019-10-15 10:00:00 19.5 7 Norte 21 Norte 0 -- -- 81
2019-10-15 09:00:00 19.1 7 Nordeste 19 Nordeste 0 -- -- 80
2019-10-15 08:00:00 19 6 Nordeste 20 Nordeste 0 -- -- 79
2019-10-15 07:00:00 18.9 6 Nordeste 21 Norte 0 -- -- 81
2019-10-15 06:00:00 19 5 Norte 21 Nordeste 0 -- -- 80
2019-10-15 05:00:00 19 4 Norte 16 Nordeste 0 -- -- 76
2019-10-15 04:00:00 19.1 5 Norte 17 Norte 0 -- -- 78
2019-10-15 03:00:00 19.1 9 Nordeste 20 Norte 0 -- -- 77
2019-10-15 02:00:00 19.2 4 Nordeste 19 Nordeste 0 -- -- 79
2019-10-15 01:00:00 19.4 8 Norte 29 Nordeste 0 -- -- 76
2019-10-15 00:00:00 19.4 7 Nordeste 17 Norte 0 -- -- 81